Cincinnati, Ohio
Current Conditions -  °F | °C
As of 2:53 PM on Wednesday 28 Jan 2015 (Local Time) from KLUK Reporting Station
Clear Clear  
Wind Chill: 26°   Ceiling: Unl
Heat Index: 34°   Visibility: 10mi
Dew Point: 18°   Wind: 10mph
Humidity: 52%   Direction: 170°S
Pressure: 30.31"   Gusts: NA
Location:  39.11°N, 84.5°W
Report Text: KLUK 281953Z 17009KT 10SM CLR 01/M08 A3031 RMK AO2 SLP268 T00111078
Loading
Personal Weather Stations






























Interactive Weather Map New forecast layout! Learn more

10-Day Weather Forecast

Advertisements
Track Severe Weather on mobile